Monday, November 19, 2018, 7:11 AM GMT
Back to Local

CWWB, Burlington Piers

Location: , , Canada Lat: 43.3
Local Time: 7:11 AM GMT ( 7:11 GMT) Lon: -79.8
Time Zone: GMT Elev: 252 ft

Show me the last for .
Show Coded

Time T Td Feel RH Dir Speed Gust Alt SLP Vis Weather Sky Remarks
2018-11-19 06:00 35 27 30 71 250° 6 - - 30.12 0 None
2018-11-19 05:00 36 28 31 72 250° 6 - - 30.12 0 None
2018-11-19 04:00 36 30 32 79 250° 5 - - 30.13 0 None
2018-11-19 03:00 35 30 31 81 250° 5 - - 30.14 0 None
2018-11-19 02:00 36 31 32 82 240° 5 - - 30.14 0 None
2018-11-19 01:00 36 33 32 88 260° 5 - - 30.14 0 None
2018-11-19 00:00 37 31 - 78 270° 1 - - 30.14 0 None
2018-11-18 23:00 37 32 32 79 130° 7 - - 30.14 0 None
2018-11-18 22:00 38 29 33 69 120° 6 - - 30.15 0 None
2018-11-18 21:00 37 27 32 66 110° 7 - - 30.16 0 None
2018-11-18 20:00 35 26 - 69 10° 1 - - 30.18 0 None
2018-11-18 19:00 36 25 - 63 80° 2 - - 30.20 0 None
2018-11-18 18:00 35 24 - 63 80° 2 - - 30.22 0 None
2018-11-18 17:00 35 25 30 66 110° 6 - - 30.25 0 None
2018-11-18 16:00 35 24 30 63 100° 6 - - 30.28 0 None
2018-11-18 15:00 33 20 26 57 120° 8 - - 30.30 0 None
2018-11-18 14:00 34 26 28 71 130° 7 - - 30.31 0 None
2018-11-18 13:00 33 22 27 61 150° 7 - - 30.31 0 None
2018-11-18 12:00 34 22 28 62 160° 6 - - 30.32 0 None
2018-11-18 11:00 34 22 29 61 90° 5 - - 30.32 0 None
2018-11-18 10:00 33 20 - 57 40° 2 - - 30.32 0 None
2018-11-18 09:00 32 20 26 62 310° 6 - - 30.32 0 None
2018-11-18 08:00 31 23 28 70 300° 3 - - 30.33 0 None

Support USWX by starting your Amazon purchase here.